createdAt,value
2023-03-10T00:01:29.174Z,97229.78
2023-03-10T00:03:59.853Z,97238.34
2023-03-10T00:06:30.779Z,97221.22
2023-03-10T00:08:59.399Z,97210.03
2023-03-10T00:11:30.149Z,97203.19
2023-03-10T00:13:58.932Z,97205.78
2023-03-10T00:16:30.193Z,97206.69
2023-03-10T00:18:59.280Z,97189.53
2023-03-10T00:21:32.552Z,97189.50
2023-03-10T00:24:01.082Z,97178.38
2023-03-10T00:26:31.571Z,97163.81
2023-03-10T00:28:59.968Z,97165.53
2023-03-10T00:31:31.752Z,97165.56
2023-03-10T00:34:00.887Z,97163.00
2023-03-10T00:36:31.687Z,97166.47
2023-03-10T00:39:02.383Z,97153.59
2023-03-10T00:41:36.812Z,97148.47
2023-03-10T00:44:05.441Z,97147.63
2023-03-10T00:46:36.255Z,97135.63
2023-03-10T00:49:05.058Z,97137.38
2023-03-10T00:51:34.787Z,97139.94
2023-03-10T00:54:04.567Z,97125.38
2023-03-10T00:56:34.725Z,97133.13
2023-03-10T00:59:04.330Z,97150.31
2023-03-10T01:01:35.705Z,97143.44
2023-03-10T01:04:07.886Z,97146.06
2023-03-10T01:06:37.880Z,97147.78
2023-03-10T01:09:08.023Z,97155.56
2023-03-10T01:11:38.681Z,97176.22
2023-03-10T01:14:10.081Z,97165.06
2023-03-10T01:16:38.782Z,97168.50
2023-03-10T01:19:07.786Z,97167.69
2023-03-10T01:21:38.475Z,97160.84
2023-03-10T01:24:08.671Z,97155.69
2023-03-10T01:26:38.552Z,97160.00
2023-03-10T01:29:08.123Z,97166.91
2023-03-10T01:31:36.609Z,97171.19
2023-03-10T01:34:05.237Z,97169.47
2023-03-10T01:36:33.672Z,97173.78
2023-03-10T01:39:02.095Z,97166.94
2023-03-10T01:41:30.755Z,97163.53
2023-03-10T01:44:00.664Z,97168.72
2023-03-10T01:46:48.962Z,97170.44
2023-03-10T01:49:37.377Z,97180.75
2023-03-10T01:52:12.272Z,97180.75
2023-03-10T01:54:50.086Z,97178.16
2023-03-10T01:57:24.642Z,97184.19
2023-03-10T01:59:57.563Z,97173.91
2023-03-10T02:02:28.230Z,97179.88
2023-03-10T02:04:59.135Z,97191.94
2023-03-10T02:07:36.007Z,97180.75
2023-03-10T02:10:06.535Z,97178.19
2023-03-10T02:12:35.046Z,97184.19
2023-03-10T02:15:06.350Z,97173.91
2023-03-10T02:17:36.404Z,97168.75
2023-03-10T02:20:22.522Z,97173.91
2023-03-10T02:22:51.875Z,97173.91
2023-03-10T02:25:31.001Z,97162.75
2023-03-10T02:28:01.575Z,97169.63
2023-03-10T02:30:35.604Z,97160.19
2023-03-10T02:33:08.777Z,97164.50
2023-03-10T02:35:37.273Z,97155.91
2023-03-10T02:38:10.444Z,97150.75
2023-03-10T02:40:41.337Z,97164.50
2023-03-10T02:43:21.680Z,97158.50
2023-03-10T02:45:57.337Z,97154.22
2023-03-10T02:48:31.558Z,97154.22
2023-03-10T02:51:03.254Z,97160.25
2023-03-10T02:53:31.934Z,97159.38
2023-03-10T02:56:01.377Z,97172.28
2023-03-10T02:58:34.338Z,97169.72
2023-03-10T03:01:06.539Z,97162.81
2023-03-10T03:03:39.782Z,97162.81
2023-03-10T03:06:09.672Z,97168.00
2023-03-10T03:08:38.359Z,97165.41
2023-03-10T03:11:09.404Z,97161.09
2023-03-10T03:13:39.528Z,97158.56
2023-03-10T03:16:10.748Z,97153.38
2023-03-10T03:18:40.852Z,97152.53
2023-03-10T03:21:15.849Z,97167.16
2023-03-10T03:23:46.552Z,97155.16
2023-03-10T03:26:21.410Z,97159.47
2023-03-10T03:28:53.282Z,97154.31
2023-03-10T03:31:26.980Z,97154.31
2023-03-10T03:34:05.654Z,97150.84
2023-03-10T03:36:34.741Z,97154.31
2023-03-10T03:39:03.731Z,97150.88
2023-03-10T03:41:33.479Z,97144.84
2023-03-10T03:44:03.697Z,97151.78
2023-03-10T03:46:34.211Z,97152.63
2023-03-10T03:49:03.374Z,97153.50
2023-03-10T03:51:33.181Z,97144.91
2023-03-10T03:54:02.125Z,97146.59
2023-03-10T03:56:33.640Z,97158.66
2023-03-10T03:59:03.553Z,97153.50
2023-03-10T04:01:32.237Z,97161.22
2023-03-10T04:04:01.697Z,97150.91
2023-03-10T04:06:30.079Z,97154.38
2023-03-10T04:08:58.572Z,97146.66
2023-03-10T04:11:29.160Z,97153.53
2023-03-10T04:13:57.727Z,97144.09
2023-03-10T04:16:28.223Z,97150.13
2023-03-10T04:18:57.296Z,97149.25
2023-03-10T04:21:26.341Z,97150.97
2023-03-10T04:23:57.570Z,97149.25
2023-03-10T04:26:30.554Z,97142.38
2023-03-10T04:28:59.959Z,97145.81
2023-03-10T04:31:32.776Z,97151.81
2023-03-10T04:34:02.866Z,97150.97
2023-03-10T04:36:32.545Z,97147.53
2023-03-10T04:39:05.323Z,97140.66
2023-03-10T04:41:34.232Z,97132.06
2023-03-10T04:44:02.673Z,97133.78
2023-03-10T04:46:34.863Z,97144.94
2023-03-10T04:49:03.856Z,97144.06
2023-03-10T04:51:32.462Z,97138.91
2023-03-10T04:54:01.240Z,97134.66
2023-03-10T04:56:33.299Z,97131.19
2023-03-10T04:59:03.021Z,97135.50
2023-03-10T05:01:34.249Z,97132.06
2023-03-10T05:04:07.292Z,97133.75
2023-03-10T05:06:36.803Z,97124.34
2023-03-10T05:09:22.752Z,97117.44
2023-03-10T05:11:51.167Z,97116.59
2023-03-10T05:14:20.274Z,97121.75
2023-03-10T05:16:51.251Z,97120.03
2023-03-10T05:19:20.293Z,97120.03
2023-03-10T05:21:49.218Z,97120.03
2023-03-10T05:24:17.725Z,97117.44
2023-03-10T05:26:46.338Z,97125.19
2023-03-10T05:29:15.489Z,97120.88
2023-03-10T05:31:53.040Z,97110.56
2023-03-10T05:34:28.219Z,97115.72
2023-03-10T05:36:59.801Z,97114.88
2023-03-10T05:39:29.467Z,97112.28
2023-03-10T05:42:00.679Z,97108.00
2023-03-10T05:44:32.777Z,97112.28
2023-03-10T05:47:04.310Z,97120.03
2023-03-10T05:49:33.206Z,97119.19
2023-03-10T05:52:02.141Z,97120.88
2023-03-10T05:54:30.514Z,97116.59
2023-03-10T05:56:59.138Z,97116.56
2023-03-10T05:59:29.710Z,97117.44
2023-03-10T06:01:58.124Z,97114.00
2023-03-10T06:04:32.259Z,97112.28
2023-03-10T06:07:01.686Z,97110.56
2023-03-10T06:09:32.053Z,97107.13
2023-03-10T06:12:01.117Z,97105.41
2023-03-10T06:14:29.468Z,97101.09
2023-03-10T06:16:58.182Z,97102.84
2023-03-10T06:19:28.836Z,97101.13
2023-03-10T06:21:57.351Z,97103.69
2023-03-10T06:24:25.731Z,97099.41
2023-03-10T06:26:54.277Z,97102.81
2023-03-10T06:29:22.745Z,97109.72
2023-03-10T06:31:51.390Z,97100.25
2023-03-10T06:34:20.653Z,97103.69
2023-03-10T06:36:50.778Z,97108.00
2023-03-10T06:39:19.490Z,97110.59
2023-03-10T06:41:48.341Z,97111.44
2023-03-10T06:44:18.889Z,97114.91
2023-03-10T06:46:47.534Z,97116.63
2023-03-10T06:49:16.019Z,97117.50
2023-03-10T06:51:44.716Z,97120.94
2023-03-10T06:54:14.556Z,97119.22
2023-03-10T06:56:42.953Z,97120.94
2023-03-10T06:59:11.684Z,97124.38
2023-03-10T07:01:40.335Z,97126.09
2023-03-10T07:04:09.070Z,97128.69
2023-03-10T07:06:37.448Z,97122.69
2023-03-10T07:09:06.374Z,97128.72
2023-03-10T07:11:36.275Z,97138.19
2023-03-10T07:14:05.419Z,97139.91
2023-03-10T07:16:34.280Z,97139.06
2023-03-10T07:19:03.041Z,97140.78
2023-03-10T07:21:32.103Z,97141.66
2023-03-10T07:24:00.607Z,97147.72
2023-03-10T07:26:29.268Z,97139.09
2023-03-10T07:28:59.373Z,97137.41
2023-03-10T07:31:28.019Z,97142.56
2023-03-10T07:33:57.236Z,97145.13
2023-03-10T07:36:25.921Z,97144.31
2023-03-10T07:38:54.524Z,97148.59
2023-03-10T07:41:23.742Z,97149.44
2023-03-10T07:43:55.069Z,97153.78
2023-03-10T07:46:25.140Z,97158.09
2023-03-10T07:48:53.947Z,97158.09
2023-03-10T07:51:22.668Z,97165.81
2023-03-10T07:53:51.428Z,97165.84
2023-03-10T07:56:20.164Z,97171.03
2023-03-10T07:58:49.530Z,97176.19
2023-03-10T08:01:21.273Z,97165.00
2023-03-10T08:03:51.548Z,97173.63
2023-03-10T08:06:23.794Z,97171.94
2023-03-10T08:08:52.807Z,97178.81
2023-03-10T08:11:23.478Z,97171.94
2023-03-10T08:13:52.230Z,97167.66
2023-03-10T08:16:23.437Z,97171.13
2023-03-10T08:18:54.704Z,97171.13
2023-03-10T08:21:23.618Z,97168.53
2023-03-10T08:23:52.056Z,97171.13
2023-03-10T08:26:21.128Z,97180.63
2023-03-10T08:28:50.874Z,97178.03
2023-03-10T08:31:22.065Z,97182.38
2023-03-10T08:33:56.681Z,97183.25
2023-03-10T08:36:29.199Z,97176.34
2023-03-10T08:39:00.524Z,97174.66
2023-03-10T08:41:31.673Z,97181.59
2023-03-10T08:44:01.574Z,97187.63
2023-03-10T08:46:32.455Z,97191.09
2023-03-10T08:49:03.581Z,97185.94
2023-03-10T08:51:32.044Z,97186.84
2023-03-10T08:54:01.030Z,97192.00
2023-03-10T08:56:30.411Z,97186.88
2023-03-10T08:59:00.797Z,97186.88
2023-03-10T09:01:31.857Z,97179.13
2023-03-10T09:04:03.142Z,97180.91
2023-03-10T09:06:31.760Z,97173.16
2023-03-10T09:09:00.491Z,97183.50
2023-03-10T09:11:32.538Z,97179.22
2023-03-10T09:14:02.516Z,97179.25
2023-03-10T09:16:32.343Z,97182.69
2023-03-10T09:19:02.898Z,97182.72
2023-03-10T09:21:33.754Z,97184.44
2023-03-10T09:24:05.518Z,97181.84
2023-03-10T09:26:34.504Z,97182.72
2023-03-10T09:29:03.149Z,97193.91
2023-03-10T09:31:34.822Z,97190.47
2023-03-10T09:34:05.696Z,97195.66
2023-03-10T09:36:34.114Z,97190.47
2023-03-10T09:39:03.293Z,97193.09
2023-03-10T09:42:11.992Z,97187.06
2023-03-10T09:44:46.443Z,97186.22
2023-03-10T09:47:27.888Z,97180.19
2023-03-10T09:50:14.913Z,97178.50
2023-03-10T09:52:48.155Z,97187.09
2023-03-10T09:55:23.164Z,97184.53
2023-03-10T09:57:54.195Z,97193.13
2023-03-10T10:00:27.190Z,97195.75
2023-03-10T10:03:08.956Z,97196.63
2023-03-10T10:05:43.050Z,97184.56
2023-03-10T10:08:22.362Z,97185.44
2023-03-10T10:10:54.955Z,97192.34
2023-03-10T10:13:26.543Z,97194.09
2023-03-10T10:16:21.345Z,97196.66
2023-03-10T10:18:57.410Z,97200.13
2023-03-10T10:21:42.534Z,97195.84
2023-03-10T10:24:11.678Z,97198.41
2023-03-10T10:26:40.089Z,97202.72
2023-03-10T10:29:18.048Z,97194.97
2023-03-10T10:32:08.769Z,97197.59
2023-03-10T10:34:38.940Z,97192.41
2023-03-10T10:37:30.958Z,97198.47
2023-03-10T10:40:02.134Z,97195.91
2023-03-10T10:42:32.406Z,97190.72
2023-03-10T10:45:04.091Z,97189.03
2023-03-10T10:47:35.141Z,97193.31
2023-03-10T10:50:20.399Z,97195.09
2023-03-10T10:52:53.224Z,97197.72
2023-03-10T10:55:34.287Z,97196.88
2023-03-10T10:58:06.250Z,97202.91
2023-03-10T11:00:38.216Z,97195.16
2023-03-10T11:03:21.542Z,97187.41
2023-03-10T11:05:50.019Z,97180.50
2023-03-10T11:08:32.191Z,97182.25
2023-03-10T11:11:07.634Z,97177.94
2023-03-10T11:13:50.739Z,97177.97
2023-03-10T11:16:27.441Z,97177.97
2023-03-10T11:19:02.004Z,97182.28
2023-03-10T11:21:34.463Z,97176.25
2023-03-10T11:24:15.192Z,97179.72
2023-03-10T11:26:54.083Z,97162.47
2023-03-10T11:29:39.649Z,97159.88
2023-03-10T11:32:20.253Z,97162.47
2023-03-10T11:34:53.977Z,97165.03
2023-03-10T11:37:31.939Z,97164.22
2023-03-10T11:40:20.074Z,97152.97
2023-03-10T11:42:56.087Z,97156.44
2023-03-10T11:45:31.999Z,97154.72
2023-03-10T11:48:31.402Z,97158.19
2023-03-10T11:51:02.872Z,97158.19
2023-03-10T11:53:38.685Z,97149.53
2023-03-10T11:56:14.788Z,97142.63
2023-03-10T11:58:48.153Z,97149.53
2023-03-10T12:01:21.170Z,97157.28
2023-03-10T12:03:59.368Z,97161.63
2023-03-10T12:06:36.916Z,97166.78
2023-03-10T12:09:07.563Z,97150.38
2023-03-10T12:11:38.533Z,97163.31
2023-03-10T12:14:07.127Z,97165.03
2023-03-10T12:16:39.456Z,97169.34
2023-03-10T12:19:08.270Z,97160.72
2023-03-10T12:21:36.748Z,97170.22
2023-03-10T12:24:06.337Z,97163.31
2023-03-10T12:27:05.638Z,97165.88
2023-03-10T12:29:44.583Z,97166.72
2023-03-10T12:32:41.662Z,97164.16
2023-03-10T12:35:51.880Z,97161.53
2023-03-10T12:38:32.723Z,97157.22
2023-03-10T12:41:02.589Z,97152.91
2023-03-10T12:44:03.118Z,97153.75
2023-03-10T12:46:44.539Z,97156.34
2023-03-10T12:49:29.733Z,97150.31
2023-03-10T12:52:17.232Z,97143.41
2023-03-10T12:55:17.007Z,97132.22
2023-03-10T12:58:05.222Z,97127.91
2023-03-10T13:00:49.240Z,97123.59
2023-03-10T13:03:30.572Z,97112.38
2023-03-10T13:06:07.947Z,97112.41
2023-03-10T13:08:44.394Z,97102.06
2023-03-10T13:11:31.521Z,97112.41
2023-03-10T13:14:04.533Z,97096.91
2023-03-10T13:16:36.817Z,97102.09
2023-03-10T13:19:06.664Z,97101.19
2023-03-10T13:21:37.633Z,97098.63
2023-03-10T13:24:24.890Z,97100.34
2023-03-10T13:27:05.959Z,97092.59
2023-03-10T13:29:35.490Z,97099.50
2023-03-10T13:32:06.123Z,97090.88
2023-03-10T13:34:36.749Z,97082.25
2023-03-10T13:37:06.967Z,97081.38
2023-03-10T13:39:35.567Z,97087.44
2023-03-10T13:42:15.014Z,97085.69
2023-03-10T13:44:44.486Z,97083.09
2023-03-10T13:47:19.172Z,97075.34
2023-03-10T13:49:51.199Z,97074.47
2023-03-10T13:52:22.595Z,97070.19
2023-03-10T13:54:51.341Z,97088.28
2023-03-10T13:57:27.041Z,97082.25
2023-03-10T13:59:57.486Z,97081.41
2023-03-10T14:02:31.938Z,97083.97
2023-03-10T14:05:01.556Z,97091.75
2023-03-10T14:07:32.840Z,97092.59
2023-03-10T14:10:19.776Z,97092.59
2023-03-10T14:12:50.809Z,97095.16
2023-03-10T14:15:31.501Z,97095.16
2023-03-10T14:18:20.107Z,97082.25
2023-03-10T14:20:49.409Z,97083.09
2023-03-10T14:23:38.113Z,97081.38
2023-03-10T14:26:16.044Z,97087.41
2023-03-10T14:28:44.583Z,97086.53
2023-03-10T14:31:23.334Z,97081.31
2023-03-10T14:33:53.310Z,97076.19
2023-03-10T14:36:21.723Z,97094.28
2023-03-10T14:38:50.190Z,97094.25
2023-03-10T14:41:24.901Z,97089.94
2023-03-10T14:43:53.633Z,97087.38
2023-03-10T14:46:22.211Z,97088.22
2023-03-10T14:48:52.240Z,97094.25
2023-03-10T14:51:34.415Z,97090.78
2023-03-10T14:54:04.076Z,97100.28
2023-03-10T14:56:34.704Z,97095.94
2023-03-10T14:59:03.467Z,97099.41
2023-03-10T15:01:32.218Z,97095.06
2023-03-10T15:04:02.250Z,97107.97
2023-03-10T15:06:30.909Z,97112.25
2023-03-10T15:09:01.182Z,97116.53
2023-03-10T15:11:37.097Z,97124.28
2023-03-10T15:14:13.716Z,97139.75
2023-03-10T15:16:42.189Z,97122.50
2023-03-10T15:19:19.941Z,97123.38
2023-03-10T15:21:48.348Z,97144.00
2023-03-10T15:24:16.922Z,97151.75
2023-03-10T15:26:46.036Z,97139.66
2023-03-10T15:29:16.209Z,97137.03
2023-03-10T15:31:44.877Z,97144.78
2023-03-10T15:34:14.749Z,97152.50
2023-03-10T15:36:43.960Z,97152.50
2023-03-10T15:39:18.791Z,97142.97
2023-03-10T15:41:53.868Z,97134.34
2023-03-10T15:44:22.461Z,97135.22
2023-03-10T15:46:54.793Z,97135.19
2023-03-10T15:49:24.963Z,97129.13
2023-03-10T15:51:53.573Z,97143.69
2023-03-10T15:54:21.946Z,97142.78
2023-03-10T15:56:50.612Z,97158.25
2023-03-10T15:59:19.337Z,97160.00
2023-03-10T16:01:47.856Z,97147.06
2023-03-10T16:04:16.519Z,97136.72
2023-03-10T16:06:46.709Z,97147.03
2023-03-10T16:09:15.464Z,97119.50
2023-03-10T16:11:44.082Z,97144.41
2023-03-10T16:14:12.464Z,97147.84
2023-03-10T16:16:41.399Z,97152.13
2023-03-10T16:19:09.792Z,97146.97
2023-03-10T16:21:38.177Z,97146.06
2023-03-10T16:24:08.911Z,97152.06
2023-03-10T16:26:37.302Z,97155.50
2023-03-10T16:29:05.816Z,97157.16
2023-03-10T16:31:34.740Z,97162.34
2023-03-10T16:34:03.295Z,97173.50
2023-03-10T16:36:33.264Z,97191.56
2023-03-10T16:39:01.649Z,97193.25
2023-03-10T16:41:31.630Z,97222.47
2023-03-10T16:44:00.423Z,97255.03
2023-03-10T16:46:30.432Z,97280.56
2023-03-10T16:49:00.492Z,97307.72
2023-03-10T16:51:33.166Z,97335.69
2023-03-10T16:54:04.481Z,97355.94
2023-03-10T16:56:37.785Z,97386.50
2023-03-10T16:59:06.879Z,97417.06
2023-03-10T17:01:35.781Z,97438.13
2023-03-10T17:04:04.233Z,97455.69
2023-03-10T17:06:34.185Z,97485.22
2023-03-10T17:09:03.384Z,97495.00
2023-03-10T17:11:35.654Z,97521.91
2023-03-10T17:14:08.341Z,97548.91
2023-03-10T17:16:39.033Z,97576.75
2023-03-10T17:19:12.566Z,97581.41
2023-03-10T17:21:45.807Z,97618.63
2023-03-10T17:24:16.134Z,97644.69
2023-03-10T17:26:46.729Z,97649.34
2023-03-10T17:29:15.678Z,97672.81
2023-03-10T17:31:48.778Z,97695.44
2023-03-10T17:34:17.771Z,97713.00
2023-03-10T17:36:46.719Z,97741.63
2023-03-10T17:39:20.743Z,97748.09
2023-03-10T17:41:51.299Z,97773.41
2023-03-10T17:44:19.765Z,97782.44
2023-03-10T17:46:49.331Z,97800.97
2023-03-10T17:49:19.020Z,97809.38
2023-03-10T17:51:47.669Z,97819.41
2023-03-10T17:54:20.561Z,97831.06
2023-03-10T17:56:51.126Z,97836.72
2023-03-10T17:59:19.975Z,97853.56
2023-03-10T18:01:49.934Z,97869.56
2023-03-10T18:04:18.511Z,97891.53
2023-03-10T18:06:47.484Z,97901.47
2023-03-10T18:09:16.392Z,97917.47
2023-03-10T18:11:44.842Z,97935.88
2023-03-10T18:14:14.747Z,97948.44
2023-03-10T18:16:43.131Z,97970.50
2023-03-10T18:19:12.533Z,97972.72
2023-03-10T18:21:40.996Z,97993.66
2023-03-10T18:24:11.986Z,98014.53
2023-03-10T18:26:43.467Z,98031.38
2023-03-10T18:29:14.381Z,98050.81
2023-03-10T18:31:42.875Z,98068.50
2023-03-10T18:34:12.929Z,98080.25
2023-03-10T18:36:41.767Z,98105.81
2023-03-10T18:39:11.152Z,98090.38
2023-03-10T18:41:40.980Z,98103.19
2023-03-10T18:44:09.411Z,98134.91
2023-03-10T18:46:39.437Z,98138.25
2023-03-10T18:49:08.530Z,98164.72
2023-03-10T18:51:36.915Z,98176.75
2023-03-10T18:54:07.040Z,98185.53
2023-03-10T18:56:35.460Z,98212.91
2023-03-10T18:59:04.089Z,98215.97
2023-03-10T19:01:32.524Z,98218.53
2023-03-10T19:04:03.622Z,98238.19
2023-03-10T19:06:33.356Z,98247.72
2023-03-10T19:09:02.347Z,98249.47
2023-03-10T19:11:35.582Z,98254.59
2023-03-10T19:14:05.502Z,98275.75
2023-03-10T19:16:35.883Z,98277.31
2023-03-10T19:19:05.807Z,98293.25
2023-03-10T19:21:36.516Z,98313.63
2023-03-10T19:24:05.853Z,98322.09
2023-03-10T19:26:35.067Z,98328.97
2023-03-10T19:29:03.774Z,98335.97
2023-03-10T19:31:33.088Z,98348.91
2023-03-10T19:34:02.529Z,98348.91
2023-03-10T19:36:32.492Z,98348.09
2023-03-10T19:39:01.089Z,98354.84
2023-03-10T19:41:29.518Z,98363.31
2023-03-10T19:43:59.272Z,98378.53
2023-03-10T19:46:27.889Z,98385.34
2023-03-10T19:48:56.473Z,98397.28
2023-03-10T19:51:28.271Z,98422.13
2023-03-10T19:54:01.928Z,98441.94
2023-03-10T19:56:31.666Z,98434.41
2023-03-10T19:59:01.351Z,98454.09
2023-03-10T20:01:30.488Z,98449.91
2023-03-10T20:04:02.912Z,98467.00
2023-03-10T20:06:31.638Z,98470.53
2023-03-10T20:09:01.752Z,98473.31
2023-03-10T20:11:30.506Z,98485.22
2023-03-10T20:13:58.964Z,98489.63
2023-03-10T20:16:27.989Z,98496.53
2023-03-10T20:18:56.871Z,98506.06
2023-03-10T20:21:25.516Z,98503.34
2023-03-10T20:23:55.940Z,98510.72
2023-03-10T20:26:26.681Z,98512.25
2023-03-10T20:28:55.173Z,98522.31
2023-03-10T20:31:25.416Z,98523.06
2023-03-10T20:33:54.368Z,98529.94
2023-03-10T20:36:23.095Z,98535.94
2023-03-10T20:38:51.546Z,98545.41
2023-03-10T20:41:21.057Z,98553.97
2023-03-10T20:43:51.445Z,98557.31
2023-03-10T20:46:20.055Z,98558.94
2023-03-10T20:48:50.559Z,98564.88
2023-03-10T20:51:19.424Z,98555.19
2023-03-10T20:53:48.358Z,98569.56
2023-03-10T20:56:16.832Z,98564.38
2023-03-10T20:58:45.638Z,98572.06
2023-03-10T21:01:22.410Z,98580.78
2023-03-10T21:03:54.601Z,98593.00
2023-03-10T21:06:24.328Z,98593.22
2023-03-10T21:08:53.379Z,98599.53
2023-03-10T21:11:22.871Z,98594.72
2023-03-10T21:13:51.963Z,98606.16
2023-03-10T21:16:22.193Z,98606.38
2023-03-10T21:18:51.081Z,98620.19
2023-03-10T21:21:19.465Z,98621.06
2023-03-10T21:23:47.958Z,98632.28
2023-03-10T21:26:19.186Z,98631.41
2023-03-10T21:28:48.706Z,98631.31
2023-03-10T21:31:18.662Z,98632.41
2023-03-10T21:33:50.159Z,98630.09
2023-03-10T21:36:23.882Z,98635.28
2023-03-10T21:38:52.916Z,98649.06
2023-03-10T21:41:24.201Z,98657.66
2023-03-10T21:43:55.878Z,98652.41
2023-03-10T21:46:25.151Z,98653.84
2023-03-10T21:48:55.998Z,98663.00
2023-03-10T21:51:26.892Z,98663.00
2023-03-10T21:53:55.983Z,98660.44
2023-03-10T21:56:28.184Z,98676.59
2023-03-10T21:58:58.062Z,98681.63
2023-03-10T22:01:27.455Z,98686.66
2023-03-10T22:03:57.817Z,98704.41
2023-03-10T22:06:26.525Z,98709.34
2023-03-10T22:08:55.047Z,98709.22
2023-03-10T22:11:23.364Z,98712.56
2023-03-10T22:13:54.496Z,98721.91
2023-03-10T22:16:23.230Z,98714.19
2023-03-10T22:18:52.296Z,98728.72
2023-03-10T22:21:22.473Z,98739.03
2023-03-10T22:23:50.875Z,98738.34
2023-03-10T22:26:19.603Z,98738.34
2023-03-10T22:28:47.920Z,98750.31
2023-03-10T22:31:16.437Z,98747.75
2023-03-10T22:33:45.212Z,98748.72
2023-03-10T22:36:14.796Z,98753.19
2023-03-10T22:38:44.585Z,98754.06
2023-03-10T22:41:13.852Z,98759.19
2023-03-10T22:43:42.642Z,98767.03
2023-03-10T22:46:13.304Z,98775.59
2023-03-10T22:48:42.612Z,98773.84
2023-03-10T22:51:14.727Z,98790.63
2023-03-10T22:53:46.866Z,98799.75
2023-03-10T22:56:15.230Z,98794.44
2023-03-10T22:58:43.712Z,98811.41
2023-03-10T23:01:12.053Z,98817.34
2023-03-10T23:03:41.588Z,98814.78
2023-03-10T23:06:11.325Z,98823.94
2023-03-10T23:08:40.252Z,98832.34
2023-03-10T23:11:13.590Z,98829.78
2023-03-10T23:13:43.678Z,98848.34
2023-03-10T23:16:12.265Z,98838.72
2023-03-10T23:18:41.138Z,98841.91
2023-03-10T23:21:09.887Z,98840.94
2023-03-10T23:23:39.382Z,98851.91
2023-03-10T23:26:07.760Z,98851.00
2023-03-10T23:28:37.743Z,98853.56
2023-03-10T23:31:07.608Z,98855.16
2023-03-10T23:33:36.338Z,98865.22
2023-03-10T23:36:06.464Z,98862.50
2023-03-10T23:38:36.147Z,98866.03
2023-03-10T23:41:04.985Z,98866.91
2023-03-10T23:43:35.531Z,98871.28
2023-03-10T23:46:07.059Z,98876.75
2023-03-10T23:48:36.549Z,98885.41
2023-03-10T23:51:05.744Z,98890.41
2023-03-10T23:53:34.473Z,98893.72
2023-03-10T23:56:02.852Z,98908.22
2023-03-10T23:58:32.479Z,98911.69
